Main page
METAR-TAF:

METAR-TAF

Airports :

Ramsar International Airport

Ramsar, Iran

latitude: 36-54N, longitude: 050-40E, elevation: -23 m

Current weather observation

The report was made 1 hour and 4 minutes ago, at 16:00 UTC
Calm wind
Temperature 4°C
Humidity 93%
Pressure 1026 hPa
Visibility 10 km or more
Few clouds at a height of 2600 ft

METAR: OINR 251600Z 00000KT 9999 FEW026 04/03 Q1026

Time: 20:34 (17:04 UTC)


TAF: missing

Weather observations and forecasts of more than 4000 airports (METAR and TAF reports).

The available stations are represented by yellow and red dots on the map.

Hover mouse over dot to see the name of the station.

Then click to see weather observations and forecasts.

To change the map : click on the green buttons with a black cross to zoom in, on the green button with a dash to zoom out, or on the green arrows for adjacent maps.


METAR-TAF: